Time;durP1;ratioP1;P1;durP2;ratioP2;P2;SDS_P1;SDS_P2;PMS_P1;PMS_P2;Temp;Humidity;BMP_temperature;BMP_pressure;BME280_temperature;BME280_humidity;BME280_pressure;Samples;Min_cycle;Max_cycle;Signal;HPM_P1;HPM_P2
2023/11/25 00:01:22;;;;;;;7.30;1.30;;;;;;;7.57;60.25;101159.94;6143752;22;122802;-76
2023/11/25 00:03:49;;;;;;;7.13;1.23;;;;;;;7.55;60.21;101156.47;6145616;22;124442;-76
2023/11/25 00:06:20;;;;;;;9.95;1.23;;;;;;;7.54;60.05;101154.72;6146434;22;113399;-76
2023/11/25 00:08:47;;;;;;;6.85;1.10;;;;;;;7.53;60.10;101160.88;6145574;22;113052;-76
2023/11/25 00:11:14;;;;;;;5.32;1.40;;;;;;;7.50;60.02;101163.63;6147769;22;125326;-76
2023/11/25 00:13:54;;;;;;;6.18;1.48;;;;;;;7.48;60.24;101169.81;6147097;22;124099;-76
2023/11/25 00:16:21;;;;;;;7.93;1.30;;;;;;;7.45;59.92;101176.06;6148512;22;116002;-77
2023/11/25 00:18:48;;;;;;;4.18;1.15;;;;;;;7.42;59.68;101173.50;6149226;22;115645;-77
2023/11/25 00:21:15;;;;;;;9.60;1.58;;;;;;;7.38;59.94;101174.47;6149178;22;124012;-77
2023/11/25 00:23:43;;;;;;;5.93;0.98;;;;;;;7.36;59.82;101181.56;6149164;22;123585;-76
2023/11/25 00:26:10;;;;;;;9.65;1.85;;;;;;;7.34;60.16;101172.84;6148603;22;114217;-76
2023/11/25 00:28:42;;;;;;;4.30;1.60;;;;;;;7.32;59.99;101174.66;6147439;22;113673;-76
2023/11/25 00:31:10;;;;;;;6.13;1.33;;;;;;;7.29;60.33;101180.00;6148474;22;124777;-76
2023/11/25 00:33:37;;;;;;;8.02;1.40;;;;;;;7.27;60.14;101182.69;6148627;22;123940;-77
2023/11/25 00:36:06;;;;;;;7.70;1.40;;;;;;;7.26;60.14;101180.09;6146819;22;113685;-76
2023/11/25 00:38:33;;;;;;;8.25;1.48;;;;;;;7.22;60.56;101180.16;6148402;22;113814;-76
2023/11/25 00:41:00;;;;;;;7.78;1.52;;;;;;;7.20;60.54;101176.69;6144651;22;123461;-76
2023/11/25 00:43:27;;;;;;;6.95;1.30;;;;;;;7.19;60.19;101174.97;6144198;22;124430;-77
2023/11/25 00:45:54;;;;;;;11.77;1.60;;;;;;;7.16;60.60;101180.31;6120838;22;114197;-77
2023/11/25 00:48:22;;;;;;;10.38;1.85;;;;;;;7.15;60.71;101178.56;6145685;22;112876;-77
2023/11/25 00:50:49;;;;;;;7.63;1.90;;;;;;;7.14;60.59;101181.25;6147773;22;124739;-76
2023/11/25 00:53:17;;;;;;;11.55;1.80;;;;;;;7.12;60.67;101181.31;6146536;22;123267;-76
2023/11/25 00:55:44;;;;;;;7.95;1.65;;;;;;;7.12;60.88;101178.69;6121820;22;113984;-76
2023/11/25 00:58:12;;;;;;;9.13;1.80;;;;;;;7.11;60.63;101182.19;6146275;22;111961;-76
2023/11/25 01:00:39;;;;;;;10.50;1.75;;;;;;;7.12;60.53;101173.41;6147689;22;124380;-76
2023/11/25 01:03:06;;;;;;;13.43;2.17;;;;;;;7.12;60.83;101183.94;6147878;22;123632;-76
2023/11/25 01:05:34;;;;;;;11.27;1.75;;;;;;;7.11;60.91;101179.56;6147121;22;114647;-76
2023/11/25 01:08:01;;;;;;;10.07;2.22;;;;;;;7.11;61.14;101187.47;6146524;22;114983;-76
2023/11/25 01:10:28;;;;;;;9.40;1.58;;;;;;;7.12;60.81;101183.94;6121826;22;123812;-76
2023/11/25 01:12:55;;;;;;;6.15;1.60;;;;;;;7.13;61.23;101190.94;6145279;22;122907;-76
2023/11/25 01:15:24;;;;;;;10.45;1.77;;;;;;;7.14;60.96;101197.94;6148168;22;114502;-76
2023/11/25 01:17:51;;;;;;;11.35;1.40;;;;;;;7.14;61.16;101203.22;6145986;22;112937;-76
2023/11/25 01:20:19;;;;;;;11.85;1.80;;;;;;;7.13;60.85;101190.94;6146746;22;124411;-76
2023/11/25 01:22:47;;;;;;;9.23;1.50;;;;;;;7.12;60.89;101205.00;6148230;22;123955;-76
2023/11/25 01:25:15;;;;;;;16.15;2.28;;;;;;;7.11;61.00;101203.28;6144216;22;113332;-76
2023/11/25 01:27:42;;;;;;;16.95;1.90;;;;;;;7.10;60.94;101206.81;6148139;22;114015;-77
2023/11/25 01:30:10;;;;;;;11.73;1.30;;;;;;;7.09;61.00;101215.63;6144181;22;123362;-77
2023/11/25 01:32:37;;;;;;;7.53;1.40;;;;;;;7.08;61.11;101219.13;6147346;22;123737;-76
2023/11/25 01:35:05;;;;;;;7.78;1.65;;;;;;;7.08;60.88;101221.78;6147510;22;113401;-76
2023/11/25 01:37:33;;;;;;;8.18;1.77;;;;;;;7.06;61.00;101220.94;6121979;22;113039;-76
2023/11/25 01:40:04;;;;;;;10.60;2.28;;;;;;;7.05;61.32;101219.22;6146558;22;124340;-76
2023/11/25 01:42:31;;;;;;;14.00;1.83;;;;;;;7.03;60.98;101215.78;6147846;22;124143;-76
2023/11/25 01:44:59;;;;;;;6.95;1.70;;;;;;;7.02;61.09;101214.03;6145222;22;113253;-76
2023/11/25 01:47:26;;;;;;;10.43;1.77;;;;;;;7.01;60.87;101228.13;6149223;22;113870;-76
2023/11/25 01:49:53;;;;;;;11.95;2.10;;;;;;;6.98;60.73;101225.53;6144153;22;123909;-76
2023/11/25 01:52:22;;;;;;;12.73;1.67;;;;;;;6.96;61.16;101220.31;6144977;22;123032;-76
2023/11/25 01:54:50;;;;;;;11.13;1.55;;;;;;;6.95;61.29;101222.97;6145824;22;114708;-76
2023/11/25 01:57:18;;;;;;;8.55;1.67;;;;;;;6.94;60.92;101226.53;6146060;22;114700;-77
2023/11/25 01:59:48;;;;;;;11.75;1.50;;;;;;;6.93;61.33;101224.78;6121221;22;124378;-76
2023/11/25 02:02:20;;;;;;;11.88;1.83;;;;;;;6.91;61.40;101218.69;6145624;22;123434;-76
2023/11/25 02:04:48;;;;;;;12.98;1.92;;;;;;;6.90;61.20;101230.13;6148497;22;114119;-76
2023/11/25 02:07:15;;;;;;;7.95;1.75;;;;;;;6.89;61.08;101228.38;6148307;22;114690;-76
2023/11/25 02:09:42;;;;;;;14.35;1.60;;;;;;;6.88;61.21;101221.41;6147865;22;124756;-76
2023/11/25 02:12:11;;;;;;;9.98;1.52;;;;;;;6.87;61.32;101230.19;6146018;22;123513;-76
2023/11/25 02:14:38;;;;;;;9.63;1.98;;;;;;;6.87;61.17;101224.94;6120479;22;113662;-76
2023/11/25 02:17:05;;;;;;;10.73;1.92;;;;;;;6.87;62.04;101228.41;6148169;22;114647;-76
2023/11/25 02:19:32;;;;;;;8.05;1.58;;;;;;;6.90;61.38;101232.78;6121042;22;123266;-76
2023/11/25 02:22:00;;;;;;;9.85;1.40;;;;;;;6.91;61.69;101229.22;6146495;22;124312;-77
2023/11/25 02:24:27;;;;;;;6.45;1.70;;;;;;;6.93;61.84;101235.31;6146667;22;113903;-76
2023/11/25 02:27:05;;;;;;;13.20;1.90;;;;;;;6.95;61.54;101234.41;6120494;22;113095;-76
2023/11/25 02:29:32;;;;;;;11.13;2.30;;;;;;;6.98;61.44;101243.97;6119598;22;122885;-76
2023/11/25 02:32:00;;;;;;;9.35;2.00;;;;;;;6.98;61.81;101233.44;6119460;22;123581;-76
2023/11/25 02:34:27;;;;;;;11.80;1.92;;;;;;;7.03;62.00;101231.56;6148141;22;114328;-76
2023/11/25 02:36:58;;;;;;;9.82;1.45;;;;;;;7.11;62.31;101240.16;6149651;22;114175;-76
2023/11/25 02:39:25;;;;;;;10.02;1.98;;;;;;;7.19;62.33;101232.91;6145329;22;122892;-76
2023/11/25 02:41:53;;;;;;;9.57;1.75;;;;;;;7.30;62.14;101223.88;6145147;22;123877;-76
2023/11/25 02:44:20;;;;;;;8.27;1.45;;;;;;;7.39;62.15;101229.78;6170337;22;115595;-77
2023/11/25 02:46:49;;;;;;;7.57;2.08;;;;;;;7.49;62.55;101211.97;6120315;22;114004;-76
2023/11/25 02:49:16;;;;;;;7.20;1.45;;;;;;;7.58;62.24;101214.34;6151589;22;122611;-76
2023/11/25 02:51:48;;;;;;;10.68;1.60;;;;;;;7.68;62.49;101214.09;6159316;22;125088;-76
2023/11/25 02:54:17;;;;;;;7.35;1.20;;;;;;;7.74;62.19;101213.94;6159002;22;114044;-76
2023/11/25 02:56:45;;;;;;;9.52;1.45;;;;;;;7.80;62.10;101219.91;6148356;22;114683;-76
2023/11/25 02:59:13;;;;;;;7.15;1.20;;;;;;;7.84;62.07;101215.44;6146317;22;123112;-76
2023/11/25 03:01:48;;;;;;;7.70;1.30;;;;;;;7.87;61.83;101215.31;6147137;22;124002;-76
2023/11/25 03:04:20;;;;;;;8.88;1.45;;;;;;;7.91;61.86;101226.66;6146320;22;112830;-77
2023/11/25 03:06:51;;;;;;;7.03;1.55;;;;;;;7.91;61.43;101217.00;6146101;22;113120;-76
2023/11/25 03:09:19;;;;;;;7.47;1.58;;;;;;;7.92;61.45;101218.72;6147447;22;124017;-76
2023/11/25 03:11:46;;;;;;;9.00;1.40;;;;;;;7.92;61.40;101221.34;6147133;22;124208;-76
2023/11/25 03:14:15;;;;;;;7.80;1.48;;;;;;;7.91;61.39;101211.72;6144624;22;112883;-76
2023/11/25 03:16:43;;;;;;;6.05;1.23;;;;;;;7.90;61.52;101209.97;6145505;22;113168;-76
2023/11/25 03:19:10;;;;;;;8.95;1.40;;;;;;;7.88;61.39;101200.38;6147319;22;123788;-76
2023/11/25 03:21:38;;;;;;;8.95;1.60;;;;;;;7.85;61.28;101203.97;6144733;22;123165;-76
2023/11/25 03:24:07;;;;;;;11.23;1.60;;;;;;;7.83;60.81;101212.81;6146745;22;114141;-76
2023/11/25 03:26:35;;;;;;;9.00;1.50;;;;;;;7.78;61.44;101215.59;6148315;22;114034;-77
2023/11/25 03:29:02;;;;;;;7.78;1.42;;;;;;;7.74;61.43;101208.66;6144592;22;124413;-76
2023/11/25 03:31:29;;;;;;;8.40;2.00;;;;;;;7.71;60.87;101211.41;6145304;22;123039;-77
2023/11/25 03:33:57;;;;;;;10.25;1.52;;;;;;;7.68;61.22;101214.09;6119946;22;114563;-76
2023/11/25 03:36:24;;;;;;;11.88;1.92;;;;;;;7.64;61.17;101217.75;6145633;22;114887;-76
2023/11/25 03:38:51;;;;;;;7.35;1.75;;;;;;;7.60;61.24;101212.53;6145311;22;123000;-75
2023/11/25 03:41:19;;;;;;;10.65;2.10;;;;;;;7.57;61.37;101214.38;6144714;22;122886;-75
2023/11/25 03:43:46;;;;;;;7.53;1.45;;;;;;;7.54;61.21;101220.63;6146980;22;114764;-76
2023/11/25 03:46:14;;;;;;;6.75;1.65;;;;;;;7.50;61.23;101211.06;6144943;22;113308;-76
2023/11/25 03:48:41;;;;;;;6.32;1.83;;;;;;;7.46;61.11;101212.06;6144272;22;123219;-76
2023/11/25 03:51:10;;;;;;;8.23;1.77;;;;;;;7.41;61.33;101211.31;6147666;22;124330;-76
2023/11/25 03:53:37;;;;;;;7.13;1.67;;;;;;;7.36;61.00;101213.19;6121455;22;113573;-76
2023/11/25 03:56:06;;;;;;;11.60;1.60;;;;;;;7.33;61.24;101221.19;6148354;22;114008;-77
2023/11/25 03:58:35;;;;;;;12.73;1.88;;;;;;;7.26;61.25;101211.72;6144655;22;123607;-76
2023/11/25 04:01:03;;;;;;;8.23;1.65;;;;;;;7.20;61.19;101216.22;6146838;22;123672;-76
2023/11/25 04:03:34;;;;;;;10.77;1.77;;;;;;;7.16;61.44;101227.75;6147145;22;114313;-77
2023/11/25 04:06:05;;;;;;;10.13;1.60;;;;;;;7.12;61.31;101220.81;6145388;22;114858;-76
2023/11/25 04:08:32;;;;;;;9.07;1.45;;;;;;;7.09;61.35;101215.63;6144296;22;122941;-76
2023/11/25 04:11:00;;;;;;;7.55;1.60;;;;;;;7.07;61.62;101217.44;6145815;22;124659;-76
2023/11/25 04:13:28;;;;;;;15.73;2.13;;;;;;;7.05;61.37;101213.97;6144023;22;113701;-76
2023/11/25 04:15:55;;;;;;;10.43;2.05;;;;;;;7.03;61.56;101226.31;6146479;22;114736;-76
2023/11/25 04:18:24;;;;;;;12.40;1.73;;;;;;;7.01;61.74;101228.13;6145014;22;123864;-77
2023/11/25 04:20:52;;;;;;;8.55;1.70;;;;;;;6.99;61.43;101227.28;6146749;22;124511;-76
2023/11/25 04:23:20;;;;;;;10.73;1.75;;;;;;;6.96;61.47;101224.72;6146989;22;115303;-76
2023/11/25 04:25:48;;;;;;;10.05;1.65;;;;;;;6.96;61.71;101220.31;6148983;22;114966;-77
2023/11/25 04:28:16;;;;;;;11.70;1.75;;;;;;;6.95;61.96;101222.97;6145662;22;123721;-76
2023/11/25 04:30:43;;;;;;;13.70;1.80;;;;;;;6.94;61.66;101223.88;6146190;22;123177;-76
2023/11/25 04:33:12;;;;;;;12.98;2.03;;;;;;;6.92;61.74;101215.16;6145732;22;112394;-76
2023/11/25 04:35:39;;;;;;;10.27;1.70;;;;;;;6.92;61.70;101217.81;6144736;22;114265;-76
2023/11/25 04:38:07;;;;;;;7.85;1.40;;;;;;;6.92;61.91;101217.81;6144389;22;124238;-76
2023/11/25 04:40:34;;;;;;;9.45;1.80;;;;;;;6.91;61.79;101208.16;6147095;22;124032;-77
2023/11/25 04:43:02;;;;;;;12.25;1.92;;;;;;;6.91;62.10;101216.06;6146085;22;114560;-77
2023/11/25 04:45:29;;;;;;;8.20;1.63;;;;;;;6.92;61.82;101209.91;6146924;22;113806;-76
2023/11/25 04:47:56;;;;;;;13.75;2.35;;;;;;;6.93;61.79;101219.50;6143316;22;124245;-76
2023/11/25 04:50:26;;;;;;;9.15;1.52;;;;;;;6.95;62.24;101228.25;6146786;22;124324;-76
2023/11/25 04:52:54;;;;;;;10.70;1.98;;;;;;;6.96;61.96;101235.25;6147810;22;114051;-76
2023/11/25 04:55:25;;;;;;;14.70;2.08;;;;;;;7.00;62.23;101242.16;6146854;22;113936;-76
2023/11/25 04:57:53;;;;;;;14.18;2.05;;;;;;;7.02;61.91;101245.63;6147934;22;125175;-76
2023/11/25 05:00:21;;;;;;;14.93;2.72;;;;;;;7.06;62.38;101247.28;6147535;22;124411;-76
2023/11/25 05:02:49;;;;;;;9.13;2.13;;;;;;;7.10;62.14;101243.69;6146657;22;113250;-76
2023/11/25 05:05:16;;;;;;;11.02;1.73;;;;;;;7.15;62.40;101247.06;6145678;22;113083;-76
2023/11/25 05:07:44;;;;;;;13.63;2.20;;;;;;;7.18;62.04;101246.16;6147897;22;123790;-76
2023/11/25 05:10:11;;;;;;;12.85;2.17;;;;;;;7.21;62.46;101241.66;6147575;22;123968;-76
2023/11/25 05:12:41;;;;;;;13.30;2.10;;;;;;;7.24;62.19;101239.84;6171612;22;115359;-76
2023/11/25 05:15:09;;;;;;;12.85;1.80;;;;;;;7.27;61.92;101229.22;6148813;22;115752;-76
2023/11/25 05:17:37;;;;;;;14.05;2.28;;;;;;;7.31;62.16;101230.88;6145412;22;124915;-76
2023/11/25 05:20:09;;;;;;;12.20;1.67;;;;;;;7.36;62.33;101239.53;6145436;22;123136;-76
2023/11/25 05:22:37;;;;;;;10.98;1.55;;;;;;;7.39;62.39;101226.28;6145424;22;113969;-76
2023/11/25 05:25:05;;;;;;;9.60;1.52;;;;;;;7.42;62.12;101239.38;6148632;22;113915;-76
2023/11/25 05:27:32;;;;;;;9.65;1.70;;;;;;;7.48;62.10;101222.53;6144858;22;124125;-76
2023/11/25 05:30:00;;;;;;;13.77;1.90;;;;;;;7.49;62.36;101209.31;6148202;22;123807;-76
2023/11/25 05:32:28;;;;;;;13.43;1.67;;;;;;;7.54;62.11;101223.25;6148562;22;114398;-76
2023/11/25 05:34:55;;;;;;;10.32;1.80;;;;;;;7.58;62.37;101219.63;6147400;22;113844;-76
2023/11/25 05:37:22;;;;;;;12.95;1.90;;;;;;;7.60;62.42;101211.69;6144176;22;124573;-76
2023/11/25 05:39:50;;;;;;;12.40;1.80;;;;;;;7.64;62.38;101226.50;6144620;22;123679;-76
2023/11/25 05:42:23;;;;;;;9.07;1.40;;;;;;;7.67;62.59;101217.66;6147563;22;114947;-76
2023/11/25 05:44:51;;;;;;;12.52;1.60;;;;;;;7.69;62.19;101223.75;6146437;22;114339;-76
2023/11/25 05:47:18;;;;;;;11.27;1.70;;;;;;;7.71;61.99;101214.91;6145528;22;124391;-76
2023/11/25 05:49:45;;;;;;;8.88;1.30;;;;;;;7.73;62.28;101214.84;6145347;22;123880;-76
2023/11/25 05:52:12;;;;;;;10.40;1.42;;;;;;;7.76;62.18;101212.13;6146663;22;113941;-76
2023/11/25 05:54:39;;;;;;;12.15;1.83;;;;;;;7.78;62.05;101200.66;6147791;22;114060;-76
2023/11/25 05:57:07;;;;;;;4.82;1.30;;;;;;;7.80;62.20;101193.56;6147182;22;124077;-76
2023/11/25 05:59:34;;;;;;;9.55;1.30;;;;;;;7.83;62.42;101203.13;6148284;22;122888;-76
2023/11/25 06:02:01;;;;;;;7.10;1.13;;;;;;;7.86;62.10;101203.06;6144609;22;114855;-75
2023/11/25 06:04:29;;;;;;;6.40;1.35;;;;;;;7.88;62.34;101206.53;6148084;22;114860;-76
2023/11/25 06:06:56;;;;;;;5.50;0.98;;;;;;;7.90;62.15;101204.69;6147086;22;124614;-76
2023/11/25 06:09:23;;;;;;;4.45;0.90;;;;;;;7.92;62.49;101202.88;6146738;22;122758;-75
2023/11/25 06:11:51;;;;;;;5.30;0.85;;;;;;;7.95;62.26;101204.59;6146351;22;113474;-75
2023/11/25 06:14:19;;;;;;;5.10;0.80;;;;;;;7.96;61.98;101193.97;6148418;22;114055;-76
2023/11/25 06:16:48;;;;;;;3.97;1.00;;;;;;;7.98;62.21;101186.88;6147788;22;124067;-76
2023/11/25 06:19:17;;;;;;;2.92;0.57;;;;;;;7.97;62.37;101177.25;6148847;22;124079;-76
2023/11/25 06:21:45;;;;;;;5.78;0.85;;;;;;;7.99;61.83;101187.75;6147727;22;113708;-76
2023/11/25 06:24:16;;;;;;;3.42;0.90;;;;;;;7.96;61.79;101180.78;6150827;22;114239;-76
2023/11/25 06:26:44;;;;;;;2.53;0.70;;;;;;;7.95;61.76;101176.44;6162455;22;123053;-76
2023/11/25 06:29:11;;;;;;;2.78;1.00;;;;;;;7.93;62.05;101172.97;6161898;22;124018;-75
2023/11/25 06:31:39;;;;;;;3.15;0.90;;;;;;;7.93;61.98;101177.38;6156665;22;114397;-76
2023/11/25 06:34:07;;;;;;;5.38;1.05;;;;;;;7.91;61.74;101174.78;6161328;22;114781;-77
2023/11/25 06:36:34;;;;;;;3.67;0.90;;;;;;;7.90;61.75;101188.03;6160850;22;123147;-75
2023/11/25 06:39:02;;;;;;;5.63;1.10;;;;;;;7.89;62.04;101197.72;6161479;22;124196;-76
2023/11/25 06:41:29;;;;;;;3.78;0.90;;;;;;;7.88;61.68;101195.97;6159468;22;113625;-75
2023/11/25 06:43:57;;;;;;;5.47;1.40;;;;;;;7.88;62.10;101180.16;6161601;22;113406;-76
2023/11/25 06:46:24;;;;;;;5.47;1.15;;;;;;;7.87;62.22;101173.13;6160164;22;124667;-76
2023/11/25 06:48:52;;;;;;;6.22;1.13;;;;;;;7.89;62.32;101181.00;6160615;22;124041;-76
2023/11/25 06:51:19;;;;;;;8.85;1.10;;;;;;;7.88;61.90;101180.16;6159141;22;113989;-76
2023/11/25 06:53:47;;;;;;;6.88;0.85;;;;;;;7.86;62.10;101176.69;6161219;22;113936;-76
2023/11/25 06:56:16;;;;;;;6.28;1.20;;;;;;;7.86;62.48;101181.97;6161716;22;124456;-76
2023/11/25 06:58:45;;;;;;;3.17;1.00;;;;;;;7.85;62.53;101174.94;6162051;22;123537;-76
2023/11/25 07:01:18;;;;;;;4.78;1.25;;;;;;;7.84;62.31;101189.06;6157588;22;114138;-76
2023/11/25 07:03:46;;;;;;;4.28;0.98;;;;;;;7.84;62.63;101183.78;6148688;22;114182;-76
2023/11/25 07:06:16;;;;;;;4.72;0.88;;;;;;;7.85;62.57;101184.63;6147437;22;124609;-75
2023/11/25 07:08:47;;;;;;;2.53;0.80;;;;;;;7.86;62.63;101181.97;6148373;22;124125;-77
2023/11/25 07:11:15;;;;;;;3.63;0.60;;;;;;;7.86;62.46;101171.41;6149718;22;114801;-77
2023/11/25 07:13:42;;;;;;;3.50;0.75;;;;;;;7.86;62.43;101176.69;6144955;22;113669;-77
2023/11/25 07:16:12;;;;;;;1.50;0.73;;;;;;;7.86;62.21;101173.19;6152195;22;123978;-77
2023/11/25 07:18:42;;;;;;;2.78;0.80;;;;;;;7.87;62.60;101167.84;6147968;22;123952;-77
2023/11/25 07:21:13;;;;;;;5.63;0.93;;;;;;;7.87;62.27;101167.00;6148046;22;114229;-77
2023/11/25 07:23:41;;;;;;;2.60;0.80;;;;;;;7.88;62.32;101166.97;6146932;22;113813;-77
2023/11/25 07:26:11;;;;;;;4.45;1.23;;;;;;;7.89;62.32;101162.53;6146402;22;123545;-77
2023/11/25 07:28:39;;;;;;;3.08;0.90;;;;;;;7.88;62.47;101164.31;6146905;22;123833;-77
2023/11/25 07:31:09;;;;;;;7.90;1.35;;;;;;;7.90;62.33;101162.50;6147120;22;113913;-77
2023/11/25 07:33:36;;;;;;;5.72;1.27;;;;;;;7.90;62.77;101159.88;6146960;22;113652;-77
2023/11/25 07:36:04;;;;;;;4.45;1.25;;;;;;;7.91;62.28;101164.25;6145432;22;122935;-77
2023/11/25 07:38:31;;;;;;;2.95;1.25;;;;;;;7.91;62.38;101169.53;6145558;22;123997;-77
2023/11/25 07:41:00;;;;;;;3.00;0.90;;;;;;;7.91;62.54;101163.38;6145390;22;114876;-77
2023/11/25 07:43:32;;;;;;;5.80;1.40;;;;;;;7.91;62.17;101169.53;6150023;22;113939;-77
2023/11/25 07:45:59;;;;;;;4.22;1.00;;;;;;;7.90;62.25;101167.78;6149371;22;124176;-77
2023/11/25 07:48:26;;;;;;;2.13;0.80;;;;;;;7.90;62.68;101175.69;6144231;22;123746;-77
2023/11/25 07:50:59;;;;;;;6.53;0.95;;;;;;;7.91;62.53;101169.53;6148380;22;114634;-77
2023/11/25 07:53:32;;;;;;;8.32;0.93;;;;;;;7.92;62.41;101171.22;6122542;22;113170;-77
2023/11/25 07:55:59;;;;;;;5.97;1.05;;;;;;;7.95;62.51;101168.53;6148268;22;123863;-76
2023/11/25 07:58:26;;;;;;;4.45;1.08;;;;;;;7.95;62.32;101165.88;6159399;22;123434;-76
2023/11/25 08:01:06;;;;;;;4.35;1.00;;;;;;;7.96;62.61;101167.59;6160776;22;115231;-75
2023/11/25 08:03:34;;;;;;;1.70;0.65;;;;;;;7.98;62.44;101176.31;6159633;22;113415;-77
2023/11/25 08:06:01;;;;;;;9.77;0.98;;;;;;;8.01;62.36;101163.97;6161376;22;123726;-77
2023/11/25 08:08:28;;;;;;;3.47;1.00;;;;;;;8.02;62.41;101170.97;6162217;22;123902;-76
2023/11/25 08:10:59;;;;;;;5.40;1.00;;;;;;;8.05;62.45;101170.91;6190447;22;114444;-78
2023/11/25 08:13:37;;;;;;;3.90;0.73;;;;;;;8.05;62.63;101171.75;6160440;22;112674;-75
2023/11/25 08:16:07;;;;;;;6.53;1.02;;;;;;;8.06;62.83;101156.78;6131647;22;125368;-77
2023/11/25 08:18:34;;;;;;;5.53;1.00;;;;;;;8.06;62.20;101154.13;6150917;22;123815;-77
2023/11/25 08:21:02;;;;;;;4.65;0.80;;;;;;;8.06;62.44;101159.41;6151546;22;114044;-78
2023/11/25 08:23:29;;;;;;;3.63;0.77;;;;;;;8.06;62.22;101162.06;6162157;22;113704;-77
2023/11/25 08:25:56;;;;;;;2.20;0.73;;;;;;;8.06;62.61;101162.06;6160598;22;123914;-76
2023/11/25 08:28:25;;;;;;;4.88;1.35;;;;;;;8.07;62.42;101164.66;6160243;22;123749;-77
2023/11/25 08:30:52;;;;;;;4.65;0.90;;;;;;;8.06;62.38;101162.94;6161657;22;114503;-76
2023/11/25 08:33:19;;;;;;;4.13;1.00;;;;;;;8.06;62.58;101167.34;6162160;22;115018;-76
2023/11/25 08:35:46;;;;;;;5.32;1.00;;;;;;;8.07;62.60;101172.56;6149317;22;124275;-77
2023/11/25 08:38:14;;;;;;;6.20;1.00;;;;;;;8.08;62.59;101165.50;6151077;22;123507;-77
2023/11/25 08:40:41;;;;;;;5.28;0.88;;;;;;;8.11;62.67;101165.44;6148526;22;113838;-77
2023/11/25 08:43:12;;;;;;;6.68;1.20;;;;;;;8.12;62.79;101168.03;6151350;22;113258;-77
2023/11/25 08:45:39;;;;;;;3.55;0.93;;;;;;;8.14;62.54;101160.94;6150290;22;123537;-77
2023/11/25 08:48:06;;;;;;;6.30;1.13;;;;;;;8.16;62.53;101160.88;6148187;22;123481;-78
2023/11/25 08:50:34;;;;;;;4.85;1.00;;;;;;;8.22;62.74;101168.63;6147514;22;114917;-78
2023/11/25 08:53:02;;;;;;;1.50;0.60;;;;;;;8.27;62.70;101174.63;6144784;22;113852;-78
2023/11/25 08:55:29;;;;;;;3.45;1.10;;;;;;;8.35;63.10;101180.53;6144492;22;123912;-78
2023/11/25 08:57:56;;;;;;;4.32;0.80;;;;;;;8.45;62.88;101172.34;6144658;22;124334;-78
2023/11/25 09:00:24;;;;;;;4.22;0.88;;;;;;;8.52;62.88;101172.13;6145831;22;114100;-78
2023/11/25 09:02:51;;;;;;;3.97;0.70;;;;;;;8.59;62.96;101172.81;6147014;22;113933;-77
2023/11/25 09:05:21;;;;;;;2.67;0.88;;;;;;;8.66;62.84;101174.31;6144025;22;123085;-78
2023/11/25 09:07:55;;;;;;;3.50;1.05;;;;;;;8.73;62.90;101170.56;6146914;22;123535;-78
2023/11/25 09:10:24;;;;;;;2.47;1.10;;;;;;;8.80;62.62;101180.94;6145207;22;113425;-78
2023/11/25 09:12:53;;;;;;;3.65;0.70;;;;;;;8.84;62.89;101177.31;6146139;22;114127;-78
2023/11/25 09:15:21;;;;;;;4.13;0.82;;;;;;;8.87;62.83;101171.91;6144082;22;123099;-78
2023/11/25 09:17:48;;;;;;;2.47;0.65;;;;;;;8.89;62.64;101175.34;6145789;22;121906;-78
2023/11/25 09:20:16;;;;;;;2.75;0.80;;;;;;;8.93;62.70;101171.72;6147849;22;115667;-78
2023/11/25 09:22:43;;;;;;;5.68;0.90;;;;;;;8.97;62.50;101178.63;6148064;22;115039;-78
2023/11/25 09:25:12;;;;;;;3.63;0.70;;;;;;;9.00;62.40;101173.22;6147873;22;124180;-77
2023/11/25 09:27:43;;;;;;;4.40;1.00;;;;;;;9.05;62.67;101171.28;6148193;22;124221;-78
2023/11/25 09:30:12;;;;;;;4.50;0.88;;;;;;;9.14;62.93;101165.69;6144989;22;114123;-77
2023/11/25 09:32:41;;;;;;;5.20;0.75;;;;;;;9.25;62.80;101177.69;6121172;22;112927;-78
2023/11/25 09:35:10;;;;;;;6.50;0.90;;;;;;;9.33;62.91;101186.22;6145748;22;122977;-77
2023/11/25 09:37:39;;;;;;;4.57;1.00;;;;;;;9.39;62.85;101186.00;6148707;22;122716;-77
2023/11/25 09:40:14;;;;;;;3.97;0.90;;;;;;;9.44;62.58;101199.94;6146733;22;114228;-77
2023/11/25 09:42:43;;;;;;;3.33;0.90;;;;;;;9.48;62.46;101205.97;6146816;22;115250;-77
2023/11/25 09:45:11;;;;;;;3.63;0.70;;;;;;;9.50;62.25;101209.44;6146864;22;124138;-77
2023/11/25 09:47:40;;;;;;;5.50;0.90;;;;;;;9.48;62.32;101201.56;6151250;22;123069;-77
2023/11/25 09:50:09;;;;;;;5.22;0.80;;;;;;;9.47;62.41;101183.94;6162045;22;114190;-77
2023/11/25 09:52:59;;;;;;;1.20;0.70;;;;;;;9.47;62.25;101183.94;6164431;22;113795;-78
2023/11/25 09:55:30;;;;;;;3.53;0.68;;;;;;;9.46;62.48;101176.94;6164827;22;123778;-78
2023/11/25 09:58:04;;;;;;;3.70;0.75;;;;;;;9.47;62.41;101183.94;6165973;22;123273;-77
2023/11/25 10:00:32;;;;;;;3.88;1.02;;;;;;;9.48;62.30;101180.41;6162673;22;114417;-78
2023/11/25 10:03:01;;;;;;;5.72;1.00;;;;;;;9.50;62.40;101178.56;6164574;22;114878;-77
2023/11/25 10:05:28;;;;;;;3.10;1.27;;;;;;;9.52;62.60;101171.44;6163383;22;125489;-77
2023/11/25 10:07:59;;;;;;;7.03;1.02;;;;;;;9.55;62.47;101171.34;6164993;22;124746;-78
2023/11/25 10:10:28;;;;;;;2.38;1.10;;;;;;;9.59;62.33;101163.28;6160529;22;118128;-77
2023/11/25 10:12:56;;;;;;;2.90;1.17;;;;;;;9.61;62.56;101164.13;6151010;22;115178;-77
2023/11/25 10:15:23;;;;;;;2.70;0.98;;;;;;;9.66;62.78;101167.44;6148310;22;124092;-78
2023/11/25 10:17:50;;;;;;;3.92;1.00;;;;;;;9.70;62.70;101169.03;6174526;22;123753;-77
2023/11/25 10:20:22;;;;;;;5.57;1.08;;;;;;;9.72;62.49;101167.25;6151140;22;114273;-77
2023/11/25 10:22:57;;;;;;;4.10;0.80;;;;;;;9.74;62.46;101160.09;6148100;22;114968;-78
2023/11/25 10:25:30;;;;;;;4.28;0.93;;;;;;;9.76;62.79;101155.63;6146619;22;124351;-78
2023/11/25 10:27:57;;;;;;;5.20;1.10;;;;;;;9.79;62.56;101147.56;6152240;22;124284;-77
2023/11/25 10:30:26;;;;;;;5.07;0.90;;;;;;;9.83;62.76;101154.47;6165038;22;114080;-77
2023/11/25 10:32:56;;;;;;;3.90;1.10;;;;;;;9.87;62.79;101150.78;6166591;22;113239;-77
2023/11/25 10:35:24;;;;;;;3.22;0.82;;;;;;;9.93;62.72;101145.25;6166137;22;123384;-78
2023/11/25 10:37:52;;;;;;;0.98;0.57;;;;;;;10.01;62.81;101141.47;6164952;22;122606;-77
2023/11/25 10:40:19;;;;;;;2.83;0.73;;;;;;;10.07;62.80;101135.94;6166205;22;114310;-78
2023/11/25 10:42:47;;;;;;;3.80;1.00;;;;;;;10.14;62.82;101135.66;6167133;22;113312;-78
2023/11/25 10:45:15;;;;;;;1.65;0.90;;;;;;;10.22;62.83;101145.94;6165247;22;122194;-77
2023/11/25 10:47:43;;;;;;;3.40;0.77;;;;;;;10.30;62.71;101138.59;6167041;22;124575;-77
2023/11/25 10:50:13;;;;;;;2.13;0.55;;;;;;;10.34;63.19;101136.72;6167808;22;114506;-77
2023/11/25 10:52:43;;;;;;;5.82;0.82;;;;;;;10.38;62.89;101138.31;6167198;22;114166;-78
2023/11/25 10:55:10;;;;;;;4.13;0.98;;;;;;;10.45;62.84;101136.25;6167585;22;126238;-77
2023/11/25 10:57:38;;;;;;;2.53;0.70;;;;;;;10.46;62.45;101138.00;6166790;22;124668;-78
2023/11/25 11:00:12;;;;;;;4.10;0.90;;;;;;;10.49;62.59;101132.56;6148849;22;115869;-77
2023/11/25 11:02:54;;;;;;;2.85;0.95;;;;;;;10.52;62.55;101127.16;6148547;22;114658;-78
2023/11/25 11:05:34;;;;;;;3.05;0.77;;;;;;;10.55;62.57;101127.03;6125148;22;123831;-77
2023/11/25 11:08:16;;;;;;;3.42;1.10;;;;;;;10.59;62.55;101127.78;6149538;22;124195;-77
2023/11/25 11:10:53;;;;;;;2.88;1.10;;;;;;;10.59;62.56;101128.63;6172935;22;115105;-77
2023/11/25 11:13:33;;;;;;;6.88;1.20;;;;;;;10.59;62.35;101117.19;6148643;22;112754;-77
2023/11/25 11:16:09;;;;;;;3.95;0.88;;;;;;;10.61;62.22;101131.22;6148618;22;124589;-77
2023/11/25 11:18:39;;;;;;;5.85;1.05;;;;;;;10.61;62.34;101137.38;6146541;22;124601;-78
2023/11/25 11:21:06;;;;;;;5.35;0.82;;;;;;;10.67;62.49;101130.97;6121113;22;114583;-78
2023/11/25 11:23:37;;;;;;;5.53;1.08;;;;;;;10.71;62.56;101128.13;6146136;22;114010;-78
2023/11/25 11:26:28;;;;;;;5.10;0.90;;;;;;;10.76;62.41;101129.75;6119945;22;124424;-77
2023/11/25 11:29:14;;;;;;;6.30;1.05;;;;;;;10.79;62.37;101119.00;6147031;22;123932;-77